createdAt,value
2018-07-17T00:00:14.540Z,79.23
2018-07-17T00:02:43.880Z,80.58
2018-07-17T00:05:13.279Z,80.25
2018-07-17T00:07:42.648Z,81.47
2018-07-17T00:10:11.961Z,81.71
2018-07-17T00:12:41.319Z,81.39
2018-07-17T00:15:10.704Z,81.65
2018-07-17T00:17:40.029Z,82.46
2018-07-17T00:20:09.341Z,82.18
2018-07-17T00:22:38.676Z,81.57
2018-07-17T00:25:07.991Z,81.38
2018-07-17T00:27:37.343Z,81.59
2018-07-17T00:30:06.682Z,82.04
2018-07-17T00:32:35.992Z,82.07
2018-07-17T00:35:05.357Z,81.53
2018-07-17T00:37:34.683Z,82.53
2018-07-17T00:40:04.039Z,82.36
2018-07-17T00:42:33.371Z,82.42
2018-07-17T00:45:02.698Z,82.53
2018-07-17T00:47:32.017Z,83.39
2018-07-17T00:50:01.363Z,83.54
2018-07-17T00:52:30.695Z,83.93
2018-07-17T00:55:00.097Z,83.46
2018-07-17T00:57:29.419Z,83.57
2018-07-17T00:59:58.769Z,83.60
2018-07-17T01:02:33.476Z,83.48
2018-07-17T01:05:08.076Z,84.76
2018-07-17T01:07:42.458Z,84.90
2018-07-17T01:10:17.155Z,84.24
2018-07-17T01:12:45.548Z,83.97
2018-07-17T01:15:22.412Z,84.67
2018-07-17T01:17:51.757Z,85.80
2018-07-17T01:20:20.822Z,84.92
2018-07-17T01:22:50.164Z,85.23
2018-07-17T01:25:19.489Z,85.60
2018-07-17T01:27:48.824Z,85.92
2018-07-17T01:30:18.183Z,85.16
2018-07-17T01:32:47.616Z,85.38
2018-07-17T01:35:16.923Z,85.89
2018-07-17T01:37:46.251Z,85.34
2018-07-17T01:40:15.577Z,85.53
2018-07-17T01:42:44.914Z,85.56
2018-07-17T01:45:14.291Z,85.19
2018-07-17T01:47:43.596Z,85.89
2018-07-17T01:50:12.976Z,86.32
2018-07-17T01:52:42.313Z,86.65
2018-07-17T01:55:11.616Z,85.80
2018-07-17T01:57:40.940Z,86.24
2018-07-17T02:00:10.318Z,86.91
2018-07-17T02:02:39.733Z,88.21
2018-07-17T02:05:09.112Z,88.06
2018-07-17T02:07:38.466Z,87.72
2018-07-17T02:10:07.856Z,87.97
2018-07-17T02:12:37.187Z,88.48
2018-07-17T02:15:06.924Z,89.02
2018-07-17T02:17:36.281Z,88.65
2018-07-17T02:20:06.176Z,88.21
2018-07-17T02:22:35.489Z,88.32
2018-07-17T02:25:04.923Z,87.96
2018-07-17T02:27:34.240Z,88.62
2018-07-17T02:30:03.679Z,88.91
2018-07-17T02:32:33.003Z,89.24
2018-07-17T02:35:02.333Z,88.49
2018-07-17T02:37:31.660Z,88.37
2018-07-17T02:40:00.953Z,88.43
2018-07-17T02:42:30.491Z,89.21
2018-07-17T02:44:59.605Z,88.89
2018-07-17T02:47:29.051Z,89.12
2018-07-17T02:49:58.408Z,88.84
2018-07-17T03:00:22.832Z,89.18
2018-07-17T03:02:52.155Z,89.30
2018-07-17T03:05:21.491Z,89.53
2018-07-17T03:07:50.812Z,89.37
2018-07-17T03:10:20.130Z,89.52
2018-07-17T03:12:49.466Z,90.15
2018-07-17T03:15:18.879Z,90.86
2018-07-17T03:17:48.196Z,89.89
2018-07-17T03:20:17.518Z,89.93
2018-07-17T03:22:46.929Z,88.51
2018-07-17T03:25:16.263Z,88.66
2018-07-17T03:27:45.595Z,88.45
2018-07-17T03:30:14.936Z,87.81
2018-07-17T03:32:44.257Z,88.22
2018-07-17T03:35:13.559Z,88.68
2018-07-17T03:37:42.937Z,89.34
2018-07-17T03:40:12.375Z,88.82
2018-07-17T03:42:41.705Z,88.38
2018-07-17T03:45:11.041Z,88.97
2018-07-17T03:47:40.344Z,88.31
2018-07-17T03:50:09.713Z,87.68
2018-07-17T03:52:39.046Z,87.11
2018-07-17T03:55:08.549Z,87.26
2018-07-17T03:57:37.919Z,87.15
2018-07-17T04:00:07.308Z,86.36
2018-07-17T04:02:36.666Z,86.89
2018-07-17T04:05:06.010Z,87.25
2018-07-17T04:07:35.357Z,87.38
2018-07-17T04:10:04.921Z,88.45
2018-07-17T04:12:34.276Z,88.80
2018-07-17T04:15:03.607Z,88.68
2018-07-17T04:17:32.914Z,87.94
2018-07-17T04:20:02.238Z,87.39
2018-07-17T04:22:31.578Z,87.86
2018-07-17T04:25:00.921Z,88.12
2018-07-17T04:27:30.251Z,87.45
2018-07-17T04:29:59.568Z,87.62
2018-07-17T04:32:28.885Z,88.57
2018-07-17T04:34:58.217Z,87.75
2018-07-17T04:37:27.539Z,87.29
2018-07-17T04:39:56.863Z,86.70
2018-07-17T04:42:26.178Z,86.94
2018-07-17T04:44:55.504Z,86.59
2018-07-17T04:47:24.848Z,86.38
2018-07-17T04:49:54.168Z,86.67
2018-07-17T04:52:23.497Z,85.94
2018-07-17T04:54:52.845Z,85.66
2018-07-17T04:57:22.193Z,86.40
2018-07-17T04:59:51.502Z,84.91
2018-07-17T05:02:20.828Z,84.97
2018-07-17T05:04:50.160Z,85.11
2018-07-17T05:07:19.477Z,85.01
2018-07-17T05:09:48.840Z,85.44
2018-07-17T05:12:18.136Z,85.52
2018-07-17T05:14:47.448Z,85.10
2018-07-17T05:17:16.799Z,84.59
2018-07-17T05:19:46.106Z,84.01
2018-07-17T05:22:15.424Z,84.70
2018-07-17T05:24:44.760Z,83.47
2018-07-17T05:27:14.092Z,83.93
2018-07-17T05:29:43.420Z,82.69
2018-07-17T05:32:13.067Z,82.04
2018-07-17T05:34:45.748Z,81.11
2018-07-17T05:37:15.195Z,81.60
2018-07-17T05:39:44.572Z,81.10
2018-07-17T05:42:13.888Z,81.17
2018-07-17T05:44:43.315Z,81.14
2018-07-17T05:47:13.025Z,80.12
2018-07-17T05:49:42.366Z,79.60
2018-07-17T05:52:11.710Z,79.49
2018-07-17T05:54:41.113Z,78.39
2018-07-17T05:57:10.508Z,78.39
2018-07-17T05:59:39.873Z,78.84
2018-07-17T06:02:11.374Z,79.09
2018-07-17T06:04:40.680Z,78.33
2018-07-17T06:07:09.999Z,77.13
2018-07-17T06:09:39.343Z,76.39
2018-07-17T06:12:08.753Z,75.29
2018-07-17T06:14:38.102Z,74.83
2018-07-17T06:17:07.457Z,74.25
2018-07-17T06:19:36.789Z,75.13
2018-07-17T06:22:06.500Z,74.92
2018-07-17T06:24:35.837Z,75.35
2018-07-17T06:27:05.606Z,74.52
2018-07-17T06:29:34.949Z,75.41
2018-07-17T06:32:04.315Z,76.00
2018-07-17T06:34:33.645Z,75.91
2018-07-17T06:37:02.975Z,76.44
2018-07-17T06:39:32.328Z,76.13
2018-07-17T06:42:01.678Z,76.22
2018-07-17T06:44:31.095Z,76.80
2018-07-17T06:47:00.422Z,76.15
2018-07-17T06:49:29.822Z,76.33
2018-07-17T06:51:59.144Z,75.69
2018-07-17T06:54:28.484Z,75.14
2018-07-17T06:56:57.798Z,74.11
2018-07-17T06:59:27.162Z,74.22
2018-07-17T07:01:56.501Z,73.83
2018-07-17T07:04:25.861Z,71.98
2018-07-17T07:06:55.187Z,72.08
2018-07-17T07:09:24.519Z,70.41
2018-07-17T07:11:53.869Z,70.78
2018-07-17T07:14:23.201Z,70.19
2018-07-17T07:16:52.843Z,70.37
2018-07-17T07:19:22.169Z,69.66
2018-07-17T07:21:51.519Z,69.95
2018-07-17T07:24:20.849Z,68.90
2018-07-17T07:26:50.332Z,69.19
2018-07-17T07:29:19.640Z,69.12
2018-07-17T07:31:48.938Z,68.99
2018-07-17T07:34:18.369Z,67.19
2018-07-17T07:36:47.699Z,67.75
2018-07-17T07:39:17.027Z,67.43
2018-07-17T07:41:46.363Z,67.04
2018-07-17T07:44:15.706Z,66.68
2018-07-17T07:46:45.139Z,66.43
2018-07-17T07:49:14.490Z,64.42
2018-07-17T07:51:43.911Z,63.48
2018-07-17T07:54:13.238Z,62.05
2018-07-17T07:56:42.554Z,61.49
2018-07-17T07:59:12.033Z,60.88
2018-07-17T08:01:41.341Z,60.47
2018-07-17T08:04:10.685Z,60.17
2018-07-17T08:06:40.189Z,60.99
2018-07-17T08:09:09.881Z,61.27
2018-07-17T08:11:39.446Z,60.93
2018-07-17T08:14:08.779Z,61.03
2018-07-17T08:16:38.105Z,60.38
2018-07-17T08:19:07.508Z,59.74
2018-07-17T08:21:36.919Z,59.77
2018-07-17T08:24:06.236Z,60.20
2018-07-17T08:26:35.579Z,59.48
2018-07-17T08:29:05.019Z,59.05
2018-07-17T08:31:34.419Z,55.35
2018-07-17T08:34:03.757Z,53.99
2018-07-17T08:36:33.158Z,55.38
2018-07-17T08:39:02.542Z,52.64
2018-07-17T08:41:31.845Z,53.23
2018-07-17T08:44:01.174Z,52.38
2018-07-17T08:46:30.482Z,52.79
2018-07-17T08:48:59.825Z,49.87
2018-07-17T08:51:29.218Z,52.73
2018-07-17T08:53:58.581Z,51.44
2018-07-17T08:56:27.892Z,51.04
2018-07-17T08:58:57.216Z,48.04
2018-07-17T09:01:26.545Z,48.62
2018-07-17T09:03:55.875Z,49.09
2018-07-17T09:06:25.214Z,47.36
2018-07-17T09:08:54.595Z,46.39
2018-07-17T09:11:24.008Z,46.76
2018-07-17T09:13:53.335Z,46.76
2018-07-17T09:16:22.669Z,44.07
2018-07-17T09:18:51.988Z,43.85
2018-07-17T09:21:21.352Z,43.09
2018-07-17T09:23:50.701Z,43.00
2018-07-17T09:26:20.024Z,40.36
2018-07-17T09:28:49.379Z,37.26
2018-07-17T09:31:18.767Z,38.21
2018-07-17T09:33:48.102Z,37.79
2018-07-17T09:36:17.428Z,37.91
2018-07-17T09:38:46.756Z,39.23
2018-07-17T09:41:16.105Z,36.60
2018-07-17T09:43:45.439Z,36.25
2018-07-17T09:46:14.803Z,35.75
2018-07-17T09:48:44.132Z,35.88
2018-07-17T09:51:13.533Z,36.27
2018-07-17T09:53:42.865Z,35.91
2018-07-17T09:56:12.230Z,36.18
2018-07-17T09:58:41.532Z,37.77
2018-07-17T10:01:15.764Z,35.32
2018-07-17T10:03:45.189Z,36.44
2018-07-17T10:06:14.533Z,36.80
2018-07-17T10:08:43.893Z,35.67
2018-07-17T10:11:13.266Z,37.10
2018-07-17T10:13:42.616Z,37.16
2018-07-17T10:16:12.097Z,37.26
2018-07-17T10:18:41.430Z,36.29
2018-07-17T10:21:10.920Z,35.78
2018-07-17T10:23:40.240Z,36.58
2018-07-17T10:26:09.620Z,35.94
2018-07-17T10:28:38.935Z,34.85
2018-07-17T10:31:08.576Z,35.11
2018-07-17T10:33:37.918Z,37.00
2018-07-17T10:36:07.265Z,36.01
2018-07-17T10:38:36.601Z,35.91
2018-07-17T10:41:05.936Z,34.07
2018-07-17T10:43:35.271Z,35.70
2018-07-17T10:46:04.653Z,36.88
2018-07-17T10:48:33.967Z,34.02
2018-07-17T10:51:03.309Z,36.30
2018-07-17T10:53:32.654Z,36.12
2018-07-17T10:56:01.995Z,35.93
2018-07-17T10:58:31.299Z,36.36
2018-07-17T11:01:00.415Z,36.10
2018-07-17T11:10:24.804Z,37.38
2018-07-17T11:12:54.140Z,37.51
2018-07-17T11:15:23.484Z,34.04
2018-07-17T11:17:52.805Z,35.77
2018-07-17T11:20:22.176Z,34.73
2018-07-17T11:22:51.527Z,36.79
2018-07-17T11:25:20.851Z,35.47
2018-07-17T11:27:50.219Z,34.48
2018-07-17T11:30:19.556Z,35.57
2018-07-17T11:32:48.884Z,34.75
2018-07-17T11:35:18.231Z,34.85
2018-07-17T11:37:47.652Z,34.37
2018-07-17T11:40:16.997Z,35.21
2018-07-17T11:42:46.318Z,35.01
2018-07-17T11:45:15.644Z,35.11
2018-07-17T11:47:45.025Z,35.27
2018-07-17T11:50:14.362Z,33.88
2018-07-17T11:52:43.689Z,34.57
2018-07-17T11:55:13.031Z,34.84
2018-07-17T11:57:42.336Z,35.22
2018-07-17T12:00:11.708Z,36.06
2018-07-17T12:02:41.048Z,37.57
2018-07-17T12:05:10.452Z,38.49
2018-07-17T12:07:39.765Z,38.59
2018-07-17T12:10:09.095Z,39.96
2018-07-17T12:12:38.424Z,41.39
2018-07-17T12:15:07.794Z,42.27
2018-07-17T12:17:37.124Z,41.84
2018-07-17T12:20:06.650Z,42.53
2018-07-17T12:22:35.887Z,42.12
2018-07-17T12:25:05.226Z,41.56
2018-07-17T12:27:34.564Z,41.57
2018-07-17T12:30:04.017Z,42.39
2018-07-17T12:32:33.330Z,41.98
2018-07-17T12:35:02.719Z,42.76
2018-07-17T12:37:32.123Z,43.13
2018-07-17T12:40:01.612Z,42.33
2018-07-17T12:42:30.984Z,42.29
2018-07-17T12:45:00.301Z,42.66
2018-07-17T12:47:29.635Z,43.40
2018-07-17T12:49:59.048Z,42.07
2018-07-17T12:52:28.319Z,43.38
2018-07-17T12:54:57.640Z,42.97
2018-07-17T12:57:26.962Z,43.49
2018-07-17T12:59:56.292Z,43.29
2018-07-17T13:02:25.660Z,44.09
2018-07-17T13:04:54.988Z,43.33
2018-07-17T13:07:24.338Z,43.10
2018-07-17T13:09:53.663Z,43.14
2018-07-17T13:12:23.007Z,43.72
2018-07-17T13:14:52.355Z,42.94
2018-07-17T13:17:21.703Z,43.32
2018-07-17T13:19:51.023Z,43.45
2018-07-17T13:22:20.448Z,43.10
2018-07-17T13:24:49.763Z,43.75
2018-07-17T13:27:19.117Z,43.49
2018-07-17T13:29:48.468Z,41.69
2018-07-17T13:32:17.846Z,41.90
2018-07-17T13:34:47.462Z,41.78
2018-07-17T13:37:16.812Z,41.92
2018-07-17T13:39:47.145Z,38.73
2018-07-17T13:42:16.473Z,38.26
2018-07-17T13:44:45.884Z,35.44
2018-07-17T13:47:15.189Z,36.45
2018-07-17T13:49:44.517Z,36.16
2018-07-17T13:52:13.925Z,34.50
2018-07-17T13:54:43.308Z,35.26
2018-07-17T13:57:12.670Z,32.15
2018-07-17T13:59:42.008Z,31.96
2018-07-17T14:02:11.505Z,32.78
2018-07-17T14:04:40.807Z,29.46
2018-07-17T14:07:10.164Z,30.11
2018-07-17T14:09:39.503Z,30.59
2018-07-17T14:12:08.941Z,29.66
2018-07-17T14:14:38.261Z,31.96
2018-07-17T14:17:07.620Z,30.55
2018-07-17T14:19:36.920Z,30.60
2018-07-17T14:22:06.310Z,29.28
2018-07-17T14:24:35.635Z,29.95
2018-07-17T14:27:04.945Z,30.51
2018-07-17T14:29:34.282Z,32.68
2018-07-17T14:32:03.635Z,32.53
2018-07-17T14:34:33.009Z,32.67
2018-07-17T14:37:02.342Z,33.33
2018-07-17T14:39:31.640Z,34.20
2018-07-17T14:42:01.022Z,35.03
2018-07-17T14:44:30.389Z,34.84
2018-07-17T14:46:59.699Z,34.95
2018-07-17T14:49:29.021Z,34.04
2018-07-17T14:51:58.365Z,36.42
2018-07-17T14:54:27.701Z,36.06
2018-07-17T14:56:57.037Z,36.95
2018-07-17T14:59:26.356Z,36.30
2018-07-17T15:01:55.682Z,35.21
2018-07-17T15:04:25.041Z,34.77
2018-07-17T15:06:54.746Z,32.67
2018-07-17T15:09:24.165Z,32.05
2018-07-17T15:11:53.403Z,33.10
2018-07-17T15:14:22.742Z,31.65
2018-07-17T15:16:52.100Z,33.03
2018-07-17T15:19:21.419Z,34.06
2018-07-17T15:21:50.809Z,33.98
2018-07-17T15:24:20.141Z,36.28
2018-07-17T15:26:49.654Z,36.56
2018-07-17T15:29:19.014Z,37.12
2018-07-17T15:31:48.340Z,36.33
2018-07-17T15:34:17.707Z,36.26
2018-07-17T15:36:47.107Z,36.86
2018-07-17T15:39:16.422Z,38.10
2018-07-17T15:41:45.756Z,37.11
2018-07-17T15:44:15.106Z,35.50
2018-07-17T15:46:44.419Z,35.07
2018-07-17T15:49:13.780Z,34.86
2018-07-17T15:51:43.118Z,36.23
2018-07-17T15:54:12.469Z,37.42
2018-07-17T15:56:41.828Z,38.00
2018-07-17T15:59:11.212Z,39.51
2018-07-17T16:01:40.569Z,41.16
2018-07-17T16:04:09.921Z,38.45
2018-07-17T16:06:39.248Z,36.14
2018-07-17T16:09:08.876Z,34.25
2018-07-17T16:11:38.539Z,33.56
2018-07-17T16:14:08.215Z,33.39
2018-07-17T16:16:37.258Z,34.10
2018-07-17T16:19:06.801Z,34.96
2018-07-17T16:21:35.916Z,36.67
2018-07-17T16:24:05.644Z,37.14
2018-07-17T16:26:35.124Z,38.56
2018-07-17T16:29:04.536Z,37.15
2018-07-17T16:31:33.909Z,37.60
2018-07-17T16:34:03.288Z,38.35
2018-07-17T16:36:32.970Z,37.50
2018-07-17T16:39:02.344Z,35.63
2018-07-17T16:41:31.676Z,33.89
2018-07-17T16:44:01.059Z,35.06
2018-07-17T16:46:30.392Z,34.43
2018-07-17T16:48:59.721Z,35.29
2018-07-17T16:51:29.076Z,35.17
2018-07-17T16:53:58.823Z,36.75
2018-07-17T16:56:28.120Z,36.56
2018-07-17T16:58:57.435Z,37.88
2018-07-17T17:01:26.782Z,38.44
2018-07-17T17:03:56.118Z,39.25
2018-07-17T17:06:25.433Z,36.21
2018-07-17T17:08:54.764Z,34.86
2018-07-17T17:11:24.065Z,34.51
2018-07-17T17:13:53.402Z,33.22
2018-07-17T17:16:22.732Z,32.24
2018-07-17T17:18:52.077Z,30.60
2018-07-17T17:21:21.416Z,31.25
2018-07-17T17:23:50.765Z,30.36
2018-07-17T17:26:20.073Z,30.40
2018-07-17T17:28:49.433Z,32.28
2018-07-17T17:31:18.860Z,31.95
2018-07-17T17:33:48.192Z,32.05
2018-07-17T17:36:17.634Z,31.25
2018-07-17T17:38:46.892Z,31.73
2018-07-17T17:41:16.248Z,32.49
2018-07-17T17:43:45.565Z,32.03
2018-07-17T17:46:14.920Z,33.72
2018-07-17T17:48:44.302Z,32.73
2018-07-17T17:51:13.702Z,32.51
2018-07-17T17:53:43.008Z,34.00
2018-07-17T17:56:12.368Z,33.60
2018-07-17T17:58:41.708Z,34.99
2018-07-17T18:01:11.060Z,36.74
2018-07-17T18:03:40.395Z,36.99
2018-07-17T18:06:09.732Z,38.58
2018-07-17T18:08:39.185Z,39.94
2018-07-17T18:11:08.507Z,39.91
2018-07-17T18:13:37.900Z,41.10
2018-07-17T18:16:07.332Z,42.07
2018-07-17T18:18:36.649Z,41.46
2018-07-17T18:21:05.978Z,41.79
2018-07-17T18:23:35.321Z,43.25
2018-07-17T18:26:04.654Z,43.36
2018-07-17T18:28:33.985Z,43.36
2018-07-17T18:31:03.312Z,43.02
2018-07-17T18:33:32.644Z,44.37
2018-07-17T18:36:01.992Z,44.52
2018-07-17T18:38:31.325Z,43.39
2018-07-17T18:41:00.668Z,44.00
2018-07-17T18:43:30.090Z,45.01
2018-07-17T18:45:59.440Z,44.26
2018-07-17T18:48:28.765Z,45.03
2018-07-17T18:50:58.108Z,44.92
2018-07-17T18:53:27.440Z,45.91
2018-07-17T18:55:56.767Z,46.34
2018-07-17T18:58:26.159Z,46.48
2018-07-17T19:00:55.470Z,45.77
2018-07-17T19:03:24.784Z,46.84
2018-07-17T19:05:54.156Z,45.87
2018-07-17T19:08:23.481Z,45.92
2018-07-17T19:10:52.821Z,47.58
2018-07-17T19:13:22.160Z,47.62
2018-07-17T19:15:51.540Z,47.40
2018-07-17T19:18:20.858Z,47.59
2018-07-17T19:20:50.231Z,47.62
2018-07-17T19:23:19.666Z,47.06
2018-07-17T19:25:49.125Z,47.22
2018-07-17T19:28:18.505Z,47.43
2018-07-17T19:30:47.954Z,47.61
2018-07-17T19:33:17.432Z,48.20
2018-07-17T19:35:47.342Z,48.30
2018-07-17T19:38:16.800Z,47.85
2018-07-17T19:40:46.215Z,47.65
2018-07-17T19:43:15.648Z,47.54
2018-07-17T19:45:45.125Z,47.58
2018-07-17T19:48:14.584Z,47.26
2018-07-17T19:50:43.964Z,48.87
2018-07-17T19:53:13.280Z,52.18
2018-07-17T19:55:42.621Z,54.68
2018-07-17T19:58:12.020Z,55.98
2018-07-17T20:00:41.370Z,56.90
2018-07-17T20:03:10.699Z,57.83
2018-07-17T20:05:40.217Z,59.00
2018-07-17T20:08:09.594Z,59.63
2018-07-17T20:10:39.117Z,60.53
2018-07-17T20:13:08.551Z,60.20
2018-07-17T20:15:38.025Z,60.88
2018-07-17T20:18:07.449Z,61.43
2018-07-17T20:20:36.821Z,61.89
2018-07-17T20:23:06.352Z,61.88
2018-07-17T20:25:35.707Z,62.07
2018-07-17T20:28:05.144Z,63.67
2018-07-17T20:30:34.624Z,63.43
2018-07-17T20:33:04.120Z,62.83
2018-07-17T20:35:33.491Z,62.89
2018-07-17T20:38:02.817Z,63.83
2018-07-17T20:40:32.295Z,64.50
2018-07-17T20:43:01.781Z,64.38
2018-07-17T20:45:31.145Z,64.89
2018-07-17T20:48:00.472Z,64.80
2018-07-17T20:50:29.800Z,65.41
2018-07-17T20:52:59.214Z,65.36
2018-07-17T20:55:28.589Z,65.52
2018-07-17T20:57:57.938Z,65.20
2018-07-17T21:00:27.236Z,66.11
2018-07-17T21:02:56.604Z,66.22
2018-07-17T21:05:25.932Z,65.75
2018-07-17T21:07:55.309Z,66.21
2018-07-17T21:10:24.676Z,66.18
2018-07-17T21:12:54.026Z,67.23
2018-07-17T21:15:23.379Z,66.96
2018-07-17T21:17:52.717Z,66.79
2018-07-17T21:20:22.133Z,67.27
2018-07-17T21:22:51.513Z,66.80
2018-07-17T21:25:20.861Z,65.70
2018-07-17T21:27:50.171Z,65.81
2018-07-17T21:30:19.512Z,65.10
2018-07-17T21:32:48.847Z,65.54
2018-07-17T21:35:18.215Z,65.46
2018-07-17T21:37:47.512Z,65.11
2018-07-17T21:40:16.899Z,64.25
2018-07-17T21:42:46.239Z,63.72
2018-07-17T21:45:15.620Z,63.22
2018-07-17T21:50:19.075Z,63.54
2018-07-17T21:52:48.438Z,64.37
2018-07-17T21:55:17.749Z,64.68
2018-07-17T21:57:47.070Z,65.23
2018-07-17T22:00:16.428Z,66.16
2018-07-17T22:02:45.744Z,66.63
2018-07-17T22:05:15.080Z,66.59
2018-07-17T22:07:44.540Z,66.98
2018-07-17T22:10:13.877Z,66.53
2018-07-17T22:12:43.216Z,65.64
2018-07-17T22:15:12.638Z,65.87
2018-07-17T22:17:41.954Z,67.15
2018-07-17T22:20:11.285Z,67.11
2018-07-17T22:22:40.604Z,68.63
2018-07-17T22:25:09.924Z,69.16
2018-07-17T22:27:39.255Z,67.82
2018-07-17T22:30:08.596Z,68.12
2018-07-17T22:32:38.020Z,67.79
2018-07-17T22:35:07.427Z,67.93
2018-07-17T22:37:36.801Z,68.22
2018-07-17T22:40:06.368Z,68.73
2018-07-17T22:42:35.712Z,69.36
2018-07-17T22:45:05.444Z,69.34
2018-07-17T22:47:34.773Z,70.57
2018-07-17T22:50:04.107Z,71.83
2018-07-17T22:52:33.471Z,71.22
2018-07-17T22:55:02.810Z,72.03
2018-07-17T22:57:32.141Z,72.03
2018-07-17T23:00:02.673Z,73.12
2018-07-17T23:02:32.015Z,72.30
2018-07-17T23:05:02.063Z,73.41
2018-07-17T23:07:31.384Z,73.15
2018-07-17T23:10:00.808Z,73.45
2018-07-17T23:12:30.149Z,74.53
2018-07-17T23:14:59.550Z,73.80
2018-07-17T23:17:28.862Z,74.74
2018-07-17T23:19:58.224Z,74.40
2018-07-17T23:22:51.327Z,74.66
2018-07-17T23:25:21.133Z,75.27
2018-07-17T23:27:51.344Z,75.26
2018-07-17T23:30:20.669Z,74.86
2018-07-17T23:32:50.856Z,75.76
2018-07-17T23:35:21.196Z,74.73
2018-07-17T23:37:51.136Z,75.23
2018-07-17T23:40:20.816Z,75.10
2018-07-17T23:42:50.148Z,74.29
2018-07-17T23:45:19.729Z,73.87
2018-07-17T23:47:49.646Z,74.18
2018-07-17T23:50:18.976Z,74.47
2018-07-17T23:52:48.289Z,73.90
2018-07-17T23:55:17.624Z,73.78
2018-07-17T23:57:46.973Z,73.32
